sensor_id;sensor_type;location;lat;lon;timestamp;pressure;altitude;pressure_sealevel;temperature;humidity
36598;BME280;22607;49.550;11.940;2023-02-13T00:00:57;98877.47;;;1.67;100.00
36598;BME280;22607;49.550;11.940;2023-02-13T00:03:23;98863.03;;;1.82;100.00
36598;BME280;22607;49.550;11.940;2023-02-13T00:05:50;98855.94;;;1.86;100.00
36598;BME280;22607;49.550;11.940;2023-02-13T00:08:17;98869.63;;;1.90;100.00
36598;BME280;22607;49.550;11.940;2023-02-13T00:10:43;98864.84;;;1.80;100.00
36598;BME280;22607;49.550;11.940;2023-02-13T00:13:09;98857.19;;;1.77;100.00
36598;BME280;22607;49.550;11.940;2023-02-13T00:15:36;98846.25;;;1.70;100.00
36598;BME280;22607;49.550;11.940;2023-02-13T00:18:03;98860.56;;;1.79;100.00
36598;BME280;22607;49.550;11.940;2023-02-13T00:20:29;98855.06;;;1.66;100.00
36598;BME280;22607;49.550;11.940;2023-02-13T00:22:57;98859.16;;;1.72;100.00
36598;BME280;22607;49.550;11.940;2023-02-13T00:25:26;98856.91;;;1.83;100.00
36598;BME280;22607;49.550;11.940;2023-02-13T00:27:53;98863.66;;;1.88;100.00
36598;BME280;22607;49.550;11.940;2023-02-13T00:30:19;98865.28;;;1.90;100.00
36598;BME280;22607;49.550;11.940;2023-02-13T00:32:46;98855.25;;;1.82;100.00
36598;BME280;22607;49.550;11.940;2023-02-13T00:35:13;98850.63;;;1.89;100.00
36598;BME280;22607;49.550;11.940;2023-02-13T00:37:39;98858.06;;;1.97;100.00
36598;BME280;22607;49.550;11.940;2023-02-13T00:40:06;98855.88;;;1.88;100.00
36598;BME280;22607;49.550;11.940;2023-02-13T00:42:39;98858.50;;;1.67;100.00
36598;BME280;22607;49.550;11.940;2023-02-13T00:45:06;98847.94;;;1.72;100.00
36598;BME280;22607;49.550;11.940;2023-02-13T00:47:32;98860.94;;;1.70;100.00
36598;BME280;22607;49.550;11.940;2023-02-13T00:49:59;98852.94;;;1.76;100.00
36598;BME280;22607;49.550;11.940;2023-02-13T00:52:30;98853.44;;;1.85;100.00
36598;BME280;22607;49.550;11.940;2023-02-13T00:54:56;98851.75;;;1.83;100.00
36598;BME280;22607;49.550;11.940;2023-02-13T00:57:23;98858.25;;;1.73;100.00
36598;BME280;22607;49.550;11.940;2023-02-13T00:59:49;98861.91;;;1.88;100.00
36598;BME280;22607;49.550;11.940;2023-02-13T01:02:17;98855.94;;;1.86;100.00
36598;BME280;22607;49.550;11.940;2023-02-13T01:04:43;98858.75;;;1.81;100.00
36598;BME280;22607;49.550;11.940;2023-02-13T01:07:10;98862.56;;;1.73;100.00
36598;BME280;22607;49.550;11.940;2023-02-13T01:09:36;98862.09;;;1.83;100.00
36598;BME280;22607;49.550;11.940;2023-02-13T01:12:02;98866.47;;;1.83;100.00
36598;BME280;22607;49.550;11.940;2023-02-13T01:14:29;98865.63;;;1.82;100.00
36598;BME280;22607;49.550;11.940;2023-02-13T01:16:56;98859.66;;;1.80;100.00
36598;BME280;22607;49.550;11.940;2023-02-13T01:19:22;98856.69;;;1.69;100.00
36598;BME280;22607;49.550;11.940;2023-02-13T01:21:49;98876.38;;;1.73;100.00
36598;BME280;22607;49.550;11.940;2023-02-13T01:24:15;98868.03;;;1.87;100.00
36598;BME280;22607;49.550;11.940;2023-02-13T01:26:43;98865.25;;;1.71;100.00
36598;BME280;22607;49.550;11.940;2023-02-13T01:29:13;98872.41;;;1.85;100.00
36598;BME280;22607;49.550;11.940;2023-02-13T01:31:39;98872.69;;;1.58;100.00
36598;BME280;22607;49.550;11.940;2023-02-13T01:34:06;98859.78;;;1.77;100.00
36598;BME280;22607;49.550;11.940;2023-02-13T01:36:32;98862.38;;;1.77;100.00
36598;BME280;22607;49.550;11.940;2023-02-13T01:39:00;98860.19;;;1.68;100.00
36598;BME280;22607;49.550;11.940;2023-02-13T01:41:26;98869.06;;;1.83;100.00
36598;BME280;22607;49.550;11.940;2023-02-13T01:43:59;98855.59;;;1.75;100.00
36598;BME280;22607;49.550;11.940;2023-02-13T01:46:30;98858.09;;;1.55;100.00
36598;BME280;22607;49.550;11.940;2023-02-13T01:49:24;98867.44;;;1.60;100.00
36598;BME280;22607;49.550;11.940;2023-02-13T01:51:53;98866.53;;;1.61;100.00
36598;BME280;22607;49.550;11.940;2023-02-13T01:54:29;98862.00;;;1.45;100.00
36598;BME280;22607;49.550;11.940;2023-02-13T01:57:04;98857.72;;;1.44;100.00
36598;BME280;22607;49.550;11.940;2023-02-13T01:59:40;98858.16;;;1.54;100.00
36598;BME280;22607;49.550;11.940;2023-02-13T02:02:08;98845.22;;;1.54;100.00
36598;BME280;22607;49.550;11.940;2023-02-13T02:04:37;98850.34;;;1.35;100.00
36598;BME280;22607;49.550;11.940;2023-02-13T02:07:32;98861.28;;;1.41;100.00
36598;BME280;22607;49.550;11.940;2023-02-13T02:10:04;98847.09;;;1.50;100.00
36598;BME280;22607;49.550;11.940;2023-02-13T02:15:26;98850.34;;;1.55;100.00
36598;BME280;22607;49.550;11.940;2023-02-13T02:17:52;98855.03;;;1.47;100.00
36598;BME280;22607;49.550;11.940;2023-02-13T02:32:39;98856.63;;;1.29;100.00
36598;BME280;22607;49.550;11.940;2023-02-13T02:35:29;98856.19;;;1.40;100.00
36598;BME280;22607;49.550;11.940;2023-02-13T02:40:58;98848.13;;;1.46;100.00
36598;BME280;22607;49.550;11.940;2023-02-13T02:46:12;98841.50;;;1.40;100.00
36598;BME280;22607;49.550;11.940;2023-02-13T02:52:05;98847.50;;;1.41;100.00
36598;BME280;22607;49.550;11.940;2023-02-13T02:55:11;98835.81;;;1.10;100.00
36598;BME280;22607;49.550;11.940;2023-02-13T02:57:48;98841.16;;;1.27;100.00
36598;BME280;22607;49.550;11.940;2023-02-13T03:00:40;98832.22;;;1.35;100.00
36598;BME280;22607;49.550;11.940;2023-02-13T03:03:27;98837.53;;;1.31;100.00
36598;BME280;22607;49.550;11.940;2023-02-13T03:06:16;98843.13;;;1.43;100.00
36598;BME280;22607;49.550;11.940;2023-02-13T03:08:51;98835.97;;;1.48;100.00
36598;BME280;22607;49.550;11.940;2023-02-13T03:11:40;98834.31;;;1.47;100.00
36598;BME280;22607;49.550;11.940;2023-02-13T03:14:27;98837.91;;;1.22;100.00
36598;BME280;22607;49.550;11.940;2023-02-13T03:16:55;98827.09;;;1.33;100.00
36598;BME280;22607;49.550;11.940;2023-02-13T03:20:07;98833.97;;;1.34;100.00
36598;BME280;22607;49.550;11.940;2023-02-13T03:23:20;98834.34;;;1.25;100.00
36598;BME280;22607;49.550;11.940;2023-02-13T03:28:51;98832.56;;;1.27;100.00
36598;BME280;22607;49.550;11.940;2023-02-13T03:31:57;98837.53;;;1.11;100.00
36598;BME280;22607;49.550;11.940;2023-02-13T03:34:32;98845.22;;;0.90;100.00
36598;BME280;22607;49.550;11.940;2023-02-13T03:37:26;98840.47;;;1.01;100.00
36598;BME280;22607;49.550;11.940;2023-02-13T03:40:19;98847.59;;;0.96;100.00
36598;BME280;22607;49.550;11.940;2023-02-13T03:42:53;98848.47;;;1.17;100.00
36598;BME280;22607;49.550;11.940;2023-02-13T03:45:29;98855.59;;;0.90;100.00
36598;BME280;22607;49.550;11.940;2023-02-13T03:48:19;98847.03;;;1.10;100.00
36598;BME280;22607;49.550;11.940;2023-02-13T03:51:15;98846.91;;;1.13;100.00
36598;BME280;22607;49.550;11.940;2023-02-13T03:53:46;98845.94;;;1.16;100.00
36598;BME280;22607;49.550;11.940;2023-02-13T03:56:17;98849.88;;;1.25;100.00
36598;BME280;22607;49.550;11.940;2023-02-13T03:59:07;98844.13;;;1.18;100.00
36598;BME280;22607;49.550;11.940;2023-02-13T04:01:48;98844.97;;;1.18;100.00
36598;BME280;22607;49.550;11.940;2023-02-13T04:07:16;98860.34;;;1.01;100.00
36598;BME280;22607;49.550;11.940;2023-02-13T04:09:58;98849.31;;;0.96;100.00
36598;BME280;22607;49.550;11.940;2023-02-13T04:12:37;98849.31;;;0.96;100.00
36598;BME280;22607;49.550;11.940;2023-02-13T04:15:13;98854.72;;;1.12;100.00
36598;BME280;22607;49.550;11.940;2023-02-13T04:17:46;98850.19;;;1.17;100.00
36598;BME280;22607;49.550;11.940;2023-02-13T04:20:14;98848.78;;;1.30;100.00
36598;BME280;22607;49.550;11.940;2023-02-13T04:22:43;98846.25;;;1.29;100.00
36598;BME280;22607;49.550;11.940;2023-02-13T04:25:18;98841.47;;;1.20;100.00
36598;BME280;22607;49.550;11.940;2023-02-13T04:27:56;98844.13;;;1.18;100.00
36598;BME280;22607;49.550;11.940;2023-02-13T04:30:22;98841.72;;;1.13;100.00
36598;BME280;22607;49.550;11.940;2023-02-13T04:32:49;98842.69;;;1.11;100.00
36598;BME280;22607;49.550;11.940;2023-02-13T04:35:17;98837.56;;;1.09;100.00
36598;BME280;22607;49.550;11.940;2023-02-13T04:37:54;98839.47;;;1.06;100.00
36598;BME280;22607;49.550;11.940;2023-02-13T04:40:20;98837.94;;;1.00;100.00
36598;BME280;22607;49.550;11.940;2023-02-13T04:42:47;98834.41;;;1.02;100.00
36598;BME280;22607;49.550;11.940;2023-02-13T04:45:15;98836.72;;;1.09;100.00
36598;BME280;22607;49.550;11.940;2023-02-13T04:47:52;98840.66;;;0.97;100.00
36598;BME280;22607;49.550;11.940;2023-02-13T04:50:19;98829.94;;;1.06;100.00
36598;BME280;22607;49.550;11.940;2023-02-13T04:52:46;98838.59;;;1.05;100.00
36598;BME280;22607;49.550;11.940;2023-02-13T04:55:13;98834.03;;;1.12;100.00
36598;BME280;22607;49.550;11.940;2023-02-13T04:57:40;98837.19;;;1.18;100.00
36598;BME280;22607;49.550;11.940;2023-02-13T05:00:13;98844.13;;;1.18;100.00
36598;BME280;22607;49.550;11.940;2023-02-13T05:02:40;98835.38;;;1.21;100.00
36598;BME280;22607;49.550;11.940;2023-02-13T05:05:07;98832.66;;;1.24;100.00
36598;BME280;22607;49.550;11.940;2023-02-13T05:07:36;98833.38;;;1.07;100.00
36598;BME280;22607;49.550;11.940;2023-02-13T05:10:03;98838.38;;;0.89;100.00
36598;BME280;22607;49.550;11.940;2023-02-13T05:12:30;98841.13;;;1.07;100.00
36598;BME280;22607;49.550;11.940;2023-02-13T05:14:56;98839.84;;;0.96;100.00
36598;BME280;22607;49.550;11.940;2023-02-13T05:17:36;98845.22;;;0.90;100.00
36598;BME280;22607;49.550;11.940;2023-02-13T05:20:05;98838.13;;;1.17;100.00
36598;BME280;22607;49.550;11.940;2023-02-13T05:22:32;98850.03;;;0.99;100.00
36598;BME280;22607;49.550;11.940;2023-02-13T05:25:17;98837.38;;;1.14;100.00
36598;BME280;22607;49.550;11.940;2023-02-13T05:27:44;98853.38;;;1.24;100.00
36598;BME280;22607;49.550;11.940;2023-02-13T05:30:11;98851.72;;;1.00;100.00
36598;BME280;22607;49.550;11.940;2023-02-13T05:32:37;98851.59;;;1.03;100.00
36598;BME280;22607;49.550;11.940;2023-02-13T05:35:13;98844.16;;;0.96;100.00
36598;BME280;22607;49.550;11.940;2023-02-13T05:37:42;98857.97;;;1.17;100.00
36598;BME280;22607;49.550;11.940;2023-02-13T05:40:16;98859.16;;;1.30;100.00
36598;BME280;22607;49.550;11.940;2023-02-13T05:42:42;98854.88;;;1.29;100.00
36598;BME280;22607;49.550;11.940;2023-02-13T05:45:09;98857.22;;;1.36;100.00
36598;BME280;22607;49.550;11.940;2023-02-13T05:47:36;98848.63;;;1.13;100.00
36598;BME280;22607;49.550;11.940;2023-02-13T05:50:02;98856.72;;;1.26;100.00
36598;BME280;22607;49.550;11.940;2023-02-13T05:52:29;98859.22;;;1.29;100.00
36598;BME280;22607;49.550;11.940;2023-02-13T05:54:55;98851.25;;;1.34;100.00
36598;BME280;22607;49.550;11.940;2023-02-13T05:57:29;98858.50;;;1.25;100.00
36598;BME280;22607;49.550;11.940;2023-02-13T05:59:55;98858.19;;;1.33;100.00
36598;BME280;22607;49.550;11.940;2023-02-13T06:02:22;98861.41;;;1.38;100.00
36598;BME280;22607;49.550;11.940;2023-02-13T06:04:49;98860.59;;;1.38;100.00
36598;BME280;22607;49.550;11.940;2023-02-13T06:07:16;98871.38;;;1.48;100.00
36598;BME280;22607;49.550;11.940;2023-02-13T06:09:42;98869.72;;;1.47;100.00
36598;BME280;22607;49.550;11.940;2023-02-13T06:12:09;98876.13;;;1.38;100.00
36598;BME280;22607;49.550;11.940;2023-02-13T06:14:35;98875.75;;;1.47;100.00
36598;BME280;22607;49.550;11.940;2023-02-13T06:17:08;98874.69;;;1.51;100.00
36598;BME280;22607;49.550;11.940;2023-02-13T06:19:35;98871.31;;;1.49;100.00
36598;BME280;22607;49.550;11.940;2023-02-13T06:22:01;98870.94;;;1.38;100.00
36598;BME280;22607;49.550;11.940;2023-02-13T06:24:28;98878.44;;;1.44;100.00
36598;BME280;22607;49.550;11.940;2023-02-13T06:26:54;98880.97;;;1.46;100.00
36598;BME280;22607;49.550;11.940;2023-02-13T06:29:21;98886.28;;;1.42;100.00
36598;BME280;22607;49.550;11.940;2023-02-13T06:31:47;98887.31;;;1.38;100.00
36598;BME280;22607;49.550;11.940;2023-02-13T06:34:14;98888.22;;;1.37;100.00
36598;BME280;22607;49.550;11.940;2023-02-13T06:36:40;98893.50;;;1.34;100.00
36598;BME280;22607;49.550;11.940;2023-02-13T06:39:08;98890.59;;;1.21;100.00
36598;BME280;22607;49.550;11.940;2023-02-13T06:41:36;98889.94;;;1.37;100.00
36598;BME280;22607;49.550;11.940;2023-02-13T06:44:02;98894.38;;;1.35;100.00
36598;BME280;22607;49.550;11.940;2023-02-13T06:46:29;98890.59;;;1.21;100.00
36598;BME280;22607;49.550;11.940;2023-02-13T06:48:55;98895.72;;;1.43;100.00
36598;BME280;22607;49.550;11.940;2023-02-13T06:51:21;98891.72;;;1.36;100.00
36598;BME280;22607;49.550;11.940;2023-02-13T06:53:48;98896.47;;;1.47;100.00
36598;BME280;22607;49.550;11.940;2023-02-13T06:56:15;98900.97;;;1.42;100.00
36598;BME280;22607;49.550;11.940;2023-02-13T06:58:41;98900.25;;;1.38;100.00
36598;BME280;22607;49.550;11.940;2023-02-13T07:01:07;98897.41;;;1.44;100.00
36598;BME280;22607;49.550;11.940;2023-02-13T07:03:34;98901.50;;;1.50;100.00
36598;BME280;22607;49.550;11.940;2023-02-13T07:06:01;98893.13;;;1.43;100.00
36598;BME280;22607;49.550;11.940;2023-02-13T07:08:27;98902.19;;;1.54;100.00
36598;BME280;22607;49.550;11.940;2023-02-13T07:10:54;98903.16;;;1.51;100.00
36598;BME280;22607;49.550;11.940;2023-02-13T07:13:21;98898.19;;;1.47;100.00
36598;BME280;22607;49.550;11.940;2023-02-13T07:15:49;98892.81;;;1.51;100.00
36598;BME280;22607;49.550;11.940;2023-02-13T07:18:15;98893.59;;;1.53;100.00
36598;BME280;22607;49.550;11.940;2023-02-13T07:20:42;98899.38;;;1.60;100.00
36598;BME280;22607;49.550;11.940;2023-02-13T07:23:09;98895.03;;;1.61;100.00
36598;BME280;22607;49.550;11.940;2023-02-13T07:25:36;98898.34;;;1.64;100.00
36598;BME280;22607;49.550;11.940;2023-02-13T07:28:09;98896.50;;;1.66;100.00
36598;BME280;22607;49.550;11.940;2023-02-13T07:30:36;98901.81;;;1.63;100.00
36598;BME280;22607;49.550;11.940;2023-02-13T07:33:03;98916.03;;;1.75;100.00
36598;BME280;22607;49.550;11.940;2023-02-13T07:35:30;98908.66;;;1.66;100.00
36598;BME280;22607;49.550;11.940;2023-02-13T07:37:57;98910.13;;;1.72;100.00
36598;BME280;22607;49.550;11.940;2023-02-13T07:40:26;98911.41;;;1.61;100.00
36598;BME280;22607;49.550;11.940;2023-02-13T07:42:52;98910.84;;;1.75;100.00
36598;BME280;22607;49.550;11.940;2023-02-13T07:45:19;98912.38;;;1.79;100.00
36598;BME280;22607;49.550;11.940;2023-02-13T07:47:45;98912.72;;;1.92;100.00
36598;BME280;22607;49.550;11.940;2023-02-13T07:50:12;98909.22;;;1.93;100.00
36598;BME280;22607;49.550;11.940;2023-02-13T07:52:39;98908.50;;;1.90;100.00
36598;BME280;22607;49.550;11.940;2023-02-13T07:55:06;98915.16;;;1.95;100.00
36598;BME280;22607;49.550;11.940;2023-02-13T07:57:33;98919.06;;;2.06;100.00
36598;BME280;22607;49.550;11.940;2023-02-13T07:59:59;98918.31;;;2.02;100.00
36598;BME280;22607;49.550;11.940;2023-02-13T08:02:26;98913.06;;;2.04;100.00
36598;BME280;22607;49.550;11.940;2023-02-13T08:04:52;98915.53;;;2.07;100.00
36598;BME280;22607;49.550;11.940;2023-02-13T08:07:19;98917.22;;;2.08;100.00
36598;BME280;22607;49.550;11.940;2023-02-13T08:09:45;98924.81;;;2.13;100.00
36598;BME280;22607;49.550;11.940;2023-02-13T08:12:37;98910.38;;;2.07;100.00
36598;BME280;22607;49.550;11.940;2023-02-13T08:15:04;98909.56;;;2.05;100.00
36598;BME280;22607;49.550;11.940;2023-02-13T08:17:33;98915.31;;;2.12;100.00
36598;BME280;22607;49.550;11.940;2023-02-13T08:20:00;98911.91;;;2.30;100.00
36598;BME280;22607;49.550;11.940;2023-02-13T08:22:27;98918.09;;;2.28;100.00
36598;BME280;22607;49.550;11.940;2023-02-13T08:24:54;98919.84;;;2.27;100.00
36598;BME280;22607;49.550;11.940;2023-02-13T08:27:20;98906.44;;;2.17;100.00
36598;BME280;22607;49.550;11.940;2023-02-13T08:29:48;98917.09;;;2.30;100.00
36598;BME280;22607;49.550;11.940;2023-02-13T08:32:16;98907.53;;;2.32;100.00
36598;BME280;22607;49.550;11.940;2023-02-13T08:34:43;98914.91;;;2.42;100.00
36598;BME280;22607;49.550;11.940;2023-02-13T08:37:10;98920.09;;;2.42;100.00
36598;BME280;22607;49.550;11.940;2023-02-13T08:39:43;98907.88;;;2.63;100.00
36598;BME280;22607;49.550;11.940;2023-02-13T08:42:10;98909.00;;;2.57;100.00
36598;BME280;22607;49.550;11.940;2023-02-13T08:44:41;98916.03;;;2.55;100.00
36598;BME280;22607;49.550;11.940;2023-02-13T08:47:11;98915.72;;;2.61;100.00
36598;BME280;22607;49.550;11.940;2023-02-13T08:49:37;98921.19;;;2.74;100.00
36598;BME280;22607;49.550;11.940;2023-02-13T08:52:04;98916.84;;;2.75;100.00
36598;BME280;22607;49.550;11.940;2023-02-13T08:54:33;98913.47;;;2.73;100.00
36598;BME280;22607;49.550;11.940;2023-02-13T08:57:01;98910.69;;;2.78;100.00
36598;BME280;22607;49.550;11.940;2023-02-13T08:59:27;98917.84;;;2.72;100.00
36598;BME280;22607;49.550;11.940;2023-02-13T09:01:56;98910.81;;;2.94;100.00
36598;BME280;22607;49.550;11.940;2023-02-13T09:04:23;98914.44;;;2.89;100.00
36598;BME280;22607;49.550;11.940;2023-02-13T09:06:49;98909.41;;;2.86;100.00
36598;BME280;22607;49.550;11.940;2023-02-13T09:09:16;98901.34;;;3.10;100.00
36598;BME280;22607;49.550;11.940;2023-02-13T09:11:42;98910.59;;;3.16;100.00
36598;BME280;22607;49.550;11.940;2023-02-13T09:14:09;98898.94;;;3.25;100.00
36598;BME280;22607;49.550;11.940;2023-02-13T09:16:35;98897.72;;;3.32;100.00
36598;BME280;22607;49.550;11.940;2023-02-13T09:19:02;98899.66;;;3.46;100.00
36598;BME280;22607;49.550;11.940;2023-02-13T09:21:29;98903.53;;;3.55;100.00
36598;BME280;22607;49.550;11.940;2023-02-13T09:23:56;98905.34;;;3.71;100.00
36598;BME280;22607;49.550;11.940;2023-02-13T09:26:23;98901.69;;;3.75;100.00
36598;BME280;22607;49.550;11.940;2023-02-13T09:28:49;98911.16;;;3.76;100.00
36598;BME280;22607;49.550;11.940;2023-02-13T09:31:18;98906.22;;;3.71;100.00
36598;BME280;22607;49.550;11.940;2023-02-13T09:33:46;98916.28;;;3.77;100.00
36598;BME280;22607;49.550;11.940;2023-02-13T09:36:19;98914.53;;;3.60;100.00
36598;BME280;22607;49.550;11.940;2023-02-13T09:38:47;98911.47;;;3.70;100.00
36598;BME280;22607;49.550;11.940;2023-02-13T09:41:37;98913.47;;;4.00;100.00
36598;BME280;22607;49.550;11.940;2023-02-13T09:49:39;98915.25;;;4.15;100.00
36598;BME280;22607;49.550;11.940;2023-02-13T09:52:07;98913.25;;;4.20;100.00
36598;BME280;22607;49.550;11.940;2023-02-13T09:54:34;98916.13;;;4.32;100.00
36598;BME280;22607;49.550;11.940;2023-02-13T10:02:13;98912.16;;;4.75;100.00
36598;BME280;22607;49.550;11.940;2023-02-13T10:05:15;98913.66;;;4.79;100.00
36598;BME280;22607;49.550;11.940;2023-02-13T10:07:59;98908.28;;;4.82;100.00
36598;BME280;22607;49.550;11.940;2023-02-13T10:13:57;98909.19;;;4.81;100.00
36598;BME280;22607;49.550;11.940;2023-02-13T10:16:32;98912.88;;;5.09;100.00
36598;BME280;22607;49.550;11.940;2023-02-13T10:19:07;98915.97;;;5.16;100.00
36598;BME280;22607;49.550;11.940;2023-02-13T10:22:11;98914.97;;;5.18;100.00
36598;BME280;22607;49.550;11.940;2023-02-13T10:24:43;98917.78;;;5.30;100.00
36598;BME280;22607;49.550;11.940;2023-02-13T10:27:23;98912.41;;;5.33;100.00
36598;BME280;22607;49.550;11.940;2023-02-13T10:29:58;98907.59;;;5.41;100.00
36598;BME280;22607;49.550;11.940;2023-02-13T10:35:23;98908.25;;;5.75;100.00
36598;BME280;22607;49.550;11.940;2023-02-13T10:38:18;98910.94;;;5.74;100.00
36598;BME280;22607;49.550;11.940;2023-02-13T10:43:49;98901.72;;;6.13;100.00
36598;BME280;22607;49.550;11.940;2023-02-13T10:46:26;98902.19;;;6.20;100.00
36598;BME280;22607;49.550;11.940;2023-02-13T10:49:19;98900.50;;;6.19;100.00
36598;BME280;22607;49.550;11.940;2023-02-13T10:51:49;98893.16;;;6.26;100.00
36598;BME280;22607;49.550;11.940;2023-02-13T10:54:50;98902.53;;;6.43;100.00
36598;BME280;22607;49.550;11.940;2023-02-13T10:57:21;98897.50;;;6.40;100.00
36598;BME280;22607;49.550;11.940;2023-02-13T11:00:07;98895.28;;;6.34;99.68
36598;BME280;22607;49.550;11.940;2023-02-13T11:02:35;98893.38;;;6.50;100.00
36598;BME280;22607;49.550;11.940;2023-02-13T11:05:23;98893.94;;;6.70;97.70
36598;BME280;22607;49.550;11.940;2023-02-13T11:07:50;98892.50;;;6.79;96.70
36598;BME280;22607;49.550;11.940;2023-02-13T11:10:25;98889.56;;;6.98;94.32
36598;BME280;22607;49.550;11.940;2023-02-13T11:12:52;98893.25;;;7.08;91.47
36598;BME280;22607;49.550;11.940;2023-02-13T11:15:29;98883.31;;;7.01;93.27
36598;BME280;22607;49.550;11.940;2023-02-13T11:17:59;98885.94;;;7.14;91.05
36598;BME280;22607;49.550;11.940;2023-02-13T11:28:54;98881.72;;;7.39;87.14
36598;BME280;22607;49.550;11.940;2023-02-13T11:31:22;98882.25;;;7.44;86.92
36598;BME280;22607;49.550;11.940;2023-02-13T11:33:49;98884.13;;;7.42;88.50
36598;BME280;22607;49.550;11.940;2023-02-13T11:38:59;98877.50;;;7.64;89.56
36598;BME280;22607;49.550;11.940;2023-02-13T11:41:27;98879.16;;;7.65;88.91
36598;BME280;22607;49.550;11.940;2023-02-13T11:44:01;98878.50;;;7.48;89.70
36598;BME280;22607;49.550;11.940;2023-02-13T11:49:18;98868.56;;;8.05;85.32
36598;BME280;22607;49.550;11.940;2023-02-13T11:51:50;98867.03;;;8.16;83.79
36598;BME280;22607;49.550;11.940;2023-02-13T11:59:47;98870.25;;;8.19;81.61
36598;BME280;22607;49.550;11.940;2023-02-13T12:02:20;98868.66;;;8.30;78.62
36598;BME280;22607;49.550;11.940;2023-02-13T12:04:50;98858.91;;;8.45;75.04
36598;BME280;22607;49.550;11.940;2023-02-13T12:07:20;98857.94;;;8.46;79.28
36598;BME280;22607;49.550;11.940;2023-02-13T12:09:50;98851.50;;;8.25;78.22
36598;BME280;22607;49.550;11.940;2023-02-13T12:12:26;98854.53;;;8.70;74.67
36598;BME280;22607;49.550;11.940;2023-02-13T12:14:55;98852.84;;;8.31;78.06
36598;BME280;22607;49.550;11.940;2023-02-13T12:17:26;98844.78;;;8.21;78.85
36598;BME280;22607;49.550;11.940;2023-02-13T12:19:58;98836.66;;;8.63;76.53
36598;BME280;22607;49.550;11.940;2023-02-13T12:22:47;98835.88;;;8.74;73.37
36598;BME280;22607;49.550;11.940;2023-02-13T12:33:09;98834.50;;;8.57;75.08
36598;BME280;22607;49.550;11.940;2023-02-13T12:38:50;98828.53;;;8.42;73.35
36598;BME280;22607;49.550;11.940;2023-02-13T12:44:15;98831.19;;;8.91;72.29
36598;BME280;22607;49.550;11.940;2023-02-13T12:46:53;98826.19;;;8.63;73.69
36598;BME280;22607;49.550;11.940;2023-02-13T12:55:21;98822.75;;;8.99;71.56
36598;BME280;22607;49.550;11.940;2023-02-13T13:10:10;98814.88;;;8.50;70.27
36598;BME280;22607;49.550;11.940;2023-02-13T13:15:50;98803.28;;;9.14;68.28
36598;BME280;22607;49.550;11.940;2023-02-13T13:18:37;98803.88;;;9.06;69.53
36598;BME280;22607;49.550;11.940;2023-02-13T13:21:09;98797.47;;;9.22;68.34
36598;BME280;22607;49.550;11.940;2023-02-13T13:23:58;98801.28;;;8.82;69.20
36598;BME280;22607;49.550;11.940;2023-02-13T13:26:40;98807.97;;;8.86;69.89
36598;BME280;22607;49.550;11.940;2023-02-13T13:29:16;98802.41;;;9.02;69.77
36598;BME280;22607;49.550;11.940;2023-02-13T13:31:51;98794.47;;;9.15;69.11
36598;BME280;22607;49.550;11.940;2023-02-13T13:34:24;98794.56;;;9.02;70.54
36598;BME280;22607;49.550;11.940;2023-02-13T13:37:24;98794.56;;;8.78;69.40
36598;BME280;22607;49.550;11.940;2023-02-13T13:42:51;98787.00;;;8.86;69.70
36598;BME280;22607;49.550;11.940;2023-02-13T13:47:55;98791.31;;;8.99;68.93
36598;BME280;22607;49.550;11.940;2023-02-13T13:50:30;98785.75;;;8.79;69.60
36598;BME280;22607;49.550;11.940;2023-02-13T13:53:11;98784.69;;;9.17;67.71
36598;BME280;22607;49.550;11.940;2023-02-13T14:01:28;98782.09;;;8.57;70.89
36598;BME280;22607;49.550;11.940;2023-02-13T14:06:26;98789.50;;;8.88;70.01
36598;BME280;22607;49.550;11.940;2023-02-13T14:08:56;98784.13;;;9.25;67.76
36598;BME280;22607;49.550;11.940;2023-02-13T14:11:37;98790.78;;;9.18;67.00
36598;BME280;22607;49.550;11.940;2023-02-13T14:16:53;98789.22;;;9.04;67.91
36598;BME280;22607;49.550;11.940;2023-02-13T14:19:37;98788.66;;;8.87;67.79
36598;BME280;22607;49.550;11.940;2023-02-13T14:25:03;98785.34;;;8.23;70.74
36598;BME280;22607;49.550;11.940;2023-02-13T14:27:33;98789.84;;;8.59;70.53
36598;BME280;22607;49.550;11.940;2023-02-13T14:30:05;98791.47;;;8.73;68.56
36598;BME280;22607;49.550;11.940;2023-02-13T14:32:47;98792.25;;;8.62;70.07
36598;BME280;22607;49.550;11.940;2023-02-13T14:35:30;98788.84;;;8.35;70.44
36598;BME280;22607;49.550;11.940;2023-02-13T14:38:00;98787.69;;;8.39;71.96
36598;BME280;22607;49.550;11.940;2023-02-13T14:40:54;98795.31;;;8.43;70.44
36598;BME280;22607;49.550;11.940;2023-02-13T14:43:31;98789.56;;;8.37;71.31
36598;BME280;22607;49.550;11.940;2023-02-13T14:48:45;98789.00;;;8.58;70.74
36598;BME280;22607;49.550;11.940;2023-02-13T14:51:19;98787.47;;;8.56;71.59
36598;BME280;22607;49.550;11.940;2023-02-13T14:54:03;98788.00;;;8.35;71.74
36598;BME280;22607;49.550;11.940;2023-02-13T14:56:31;98779.75;;;8.65;70.41
36598;BME280;22607;49.550;11.940;2023-02-13T14:59:18;98774.47;;;8.54;70.33
36598;BME280;22607;49.550;11.940;2023-02-13T15:01:49;98782.75;;;8.48;70.17
36598;BME280;22607;49.550;11.940;2023-02-13T15:04:29;98778.59;;;8.32;71.49
36598;BME280;22607;49.550;11.940;2023-02-13T15:07:03;98778.91;;;7.90;72.62
36598;BME280;22607;49.550;11.940;2023-02-13T15:09:36;98773.25;;;7.96;74.25
36598;BME280;22607;49.550;11.940;2023-02-13T15:12:23;98767.16;;;8.09;73.14
36598;BME280;22607;49.550;11.940;2023-02-13T15:14:50;98763.91;;;8.05;73.86
36598;BME280;22607;49.550;11.940;2023-02-13T15:17:34;98767.22;;;8.20;72.47
36598;BME280;22607;49.550;11.940;2023-02-13T15:22:45;98757.91;;;8.16;72.25
36598;BME280;22607;49.550;11.940;2023-02-13T15:27:52;98774.59;;;8.39;70.70
36598;BME280;22607;49.550;11.940;2023-02-13T15:30:59;98763.88;;;8.18;71.18